Pagrindinis puslapis
METAR-TAF:

METAR-TAF

Oro uostai :

Mumbajus, Indija

platuma: 19-05-53N, ilguma: 072-50-02E, Aukštis: 4 m

Dabartinis oras

Ataskaita buvo paskelbta 2 valandos ir 24 minutes, ne 12:30 UTC
Vėjas 10 kt iš Vakarų
Temperatūra 30°C
Drėgmė 75%
Slėgis 1005 hPa
Matomumas: 4000 m
Išsisklaidę debesys ne aukštis 2000 ft
Išsisklaidę debesys ne aukštis 2500 ft
Su prošvaistėmis ne aukštis 10000 ft
migla

METAR: VAJJ 171230Z 26010KT 4000 HZ SCT020 SCT025 BKN100 30/25 Q1005 NOSIG

Laikas: 20:24 (14:54 UTC)


TAF: trūkstamas

Orai ataskaitas ir orų prognozės (METAR, TAF).

turimą stotys yra geltonos ir raudonos taškus žemėlapyje.

Perkelti pele per norėdami pamatyti stoties vardą.

Tada spustelėkite, norėdami matyti oro stebėjimo ir prognozės.

Norėdami pakeisti žemėlapį: spustelėkite ant žalios mygtukų su juodo kryžiaus žemyn,; žalią mygtuką su brūkšneliu, jei norite nutolinti; arba žalių rodyklių gretimoms žemėlapius.


METAR-TAF: